sensor_id;sensor_type;location;lat;lon;timestamp;temperature;humidity
1429;DHT22;708;51.442;7.016;2023-07-31T00:01:25;17.60;99.90
1429;DHT22;708;51.442;7.016;2023-07-31T00:03:52;17.50;99.90
1429;DHT22;708;51.442;7.016;2023-07-31T00:06:20;17.50;99.90
1429;DHT22;708;51.442;7.016;2023-07-31T00:08:46;17.50;99.90
1429;DHT22;708;51.442;7.016;2023-07-31T00:11:13;17.50;99.90
1429;DHT22;708;51.442;7.016;2023-07-31T00:13:40;17.50;99.90
1429;DHT22;708;51.442;7.016;2023-07-31T00:16:07;17.50;99.90
1429;DHT22;708;51.442;7.016;2023-07-31T00:18:33;17.50;99.90
1429;DHT22;708;51.442;7.016;2023-07-31T00:21:00;17.50;99.90
1429;DHT22;708;51.442;7.016;2023-07-31T00:23:28;17.50;99.90
1429;DHT22;708;51.442;7.016;2023-07-31T00:25:55;17.40;99.90
1429;DHT22;708;51.442;7.016;2023-07-31T00:28:21;17.40;99.90
1429;DHT22;708;51.442;7.016;2023-07-31T00:30:48;17.40;99.90
1429;DHT22;708;51.442;7.016;2023-07-31T00:33:15;17.40;99.90
1429;DHT22;708;51.442;7.016;2023-07-31T00:35:41;17.50;99.90
1429;DHT22;708;51.442;7.016;2023-07-31T00:38:08;17.50;99.90
1429;DHT22;708;51.442;7.016;2023-07-31T00:40:37;17.40;99.90
1429;DHT22;708;51.442;7.016;2023-07-31T00:43:03;17.50;99.90
1429;DHT22;708;51.442;7.016;2023-07-31T00:45:30;17.40;99.90
1429;DHT22;708;51.442;7.016;2023-07-31T00:47:57;17.40;99.90
1429;DHT22;708;51.442;7.016;2023-07-31T00:50:25;17.40;99.90
1429;DHT22;708;51.442;7.016;2023-07-31T00:52:52;17.40;99.90
1429;DHT22;708;51.442;7.016;2023-07-31T00:55:18;17.40;99.90
1429;DHT22;708;51.442;7.016;2023-07-31T00:57:48;17.40;99.90
1429;DHT22;708;51.442;7.016;2023-07-31T01:00:15;17.40;99.90
1429;DHT22;708;51.442;7.016;2023-07-31T01:02:42;17.40;99.90
1429;DHT22;708;51.442;7.016;2023-07-31T01:05:09;17.40;99.90
1429;DHT22;708;51.442;7.016;2023-07-31T01:07:42;17.40;99.90
1429;DHT22;708;51.442;7.016;2023-07-31T01:10:15;17.40;99.90
1429;DHT22;708;51.442;7.016;2023-07-31T01:12:44;17.40;99.90
1429;DHT22;708;51.442;7.016;2023-07-31T01:15:13;17.50;99.90
1429;DHT22;708;51.442;7.016;2023-07-31T01:17:41;17.50;99.90
1429;DHT22;708;51.442;7.016;2023-07-31T01:20:11;17.40;99.90
1429;DHT22;708;51.442;7.016;2023-07-31T01:23:01;17.40;99.90
1429;DHT22;708;51.442;7.016;2023-07-31T01:25:53;17.50;99.90
1429;DHT22;708;51.442;7.016;2023-07-31T01:28:25;17.50;99.90
1429;DHT22;708;51.442;7.016;2023-07-31T01:30:55;17.50;99.90
1429;DHT22;708;51.442;7.016;2023-07-31T01:33:25;17.60;99.90
1429;DHT22;708;51.442;7.016;2023-07-31T01:35:52;17.60;99.90
1429;DHT22;708;51.442;7.016;2023-07-31T01:38:20;17.60;99.90
1429;DHT22;708;51.442;7.016;2023-07-31T01:40:52;17.60;99.90
1429;DHT22;708;51.442;7.016;2023-07-31T01:43:20;17.70;99.90
1429;DHT22;708;51.442;7.016;2023-07-31T01:45:49;17.70;99.90
1429;DHT22;708;51.442;7.016;2023-07-31T01:48:16;17.70;99.90
1429;DHT22;708;51.442;7.016;2023-07-31T01:50:43;17.80;99.90
1429;DHT22;708;51.442;7.016;2023-07-31T01:53:10;17.80;99.90
1429;DHT22;708;51.442;7.016;2023-07-31T01:55:37;17.80;99.90
1429;DHT22;708;51.442;7.016;2023-07-31T01:58:05;17.90;99.90
1429;DHT22;708;51.442;7.016;2023-07-31T02:00:32;17.90;99.90
1429;DHT22;708;51.442;7.016;2023-07-31T02:02:59;17.90;99.90
1429;DHT22;708;51.442;7.016;2023-07-31T02:05:26;17.90;99.90
1429;DHT22;708;51.442;7.016;2023-07-31T02:07:53;18.00;99.90
1429;DHT22;708;51.442;7.016;2023-07-31T02:10:19;18.00;99.90
1429;DHT22;708;51.442;7.016;2023-07-31T02:12:46;18.00;99.90
1429;DHT22;708;51.442;7.016;2023-07-31T02:15:14;18.00;99.90
1429;DHT22;708;51.442;7.016;2023-07-31T02:17:41;18.00;99.90
1429;DHT22;708;51.442;7.016;2023-07-31T02:20:09;18.00;99.90
1429;DHT22;708;51.442;7.016;2023-07-31T02:22:36;18.00;99.90
1429;DHT22;708;51.442;7.016;2023-07-31T02:25:03;18.00;99.90
1429;DHT22;708;51.442;7.016;2023-07-31T02:27:37;18.00;99.90
1429;DHT22;708;51.442;7.016;2023-07-31T02:30:08;18.00;99.90
1429;DHT22;708;51.442;7.016;2023-07-31T02:32:36;18.00;99.90
1429;DHT22;708;51.442;7.016;2023-07-31T02:35:03;18.10;99.90
1429;DHT22;708;51.442;7.016;2023-07-31T02:37:31;18.10;99.90
1429;DHT22;708;51.442;7.016;2023-07-31T02:39:57;18.10;99.90
1429;DHT22;708;51.442;7.016;2023-07-31T02:42:24;18.10;99.90
1429;DHT22;708;51.442;7.016;2023-07-31T02:44:51;18.10;99.90
1429;DHT22;708;51.442;7.016;2023-07-31T02:47:21;18.10;99.90
1429;DHT22;708;51.442;7.016;2023-07-31T02:49:49;18.10;99.90
1429;DHT22;708;51.442;7.016;2023-07-31T02:52:16;18.00;99.90
1429;DHT22;708;51.442;7.016;2023-07-31T02:54:42;18.00;99.90
1429;DHT22;708;51.442;7.016;2023-07-31T02:57:09;18.00;99.90
1429;DHT22;708;51.442;7.016;2023-07-31T02:59:36;18.00;99.90
1429;DHT22;708;51.442;7.016;2023-07-31T03:02:03;18.10;99.90
1429;DHT22;708;51.442;7.016;2023-07-31T03:04:30;18.10;99.90
1429;DHT22;708;51.442;7.016;2023-07-31T03:06:58;18.00;99.90
1429;DHT22;708;51.442;7.016;2023-07-31T03:09:25;18.10;99.90
1429;DHT22;708;51.442;7.016;2023-07-31T03:11:51;18.00;99.90
1429;DHT22;708;51.442;7.016;2023-07-31T03:14:18;18.10;99.90
1429;DHT22;708;51.442;7.016;2023-07-31T03:16:45;18.10;99.90
1429;DHT22;708;51.442;7.016;2023-07-31T03:19:11;18.10;99.90
1429;DHT22;708;51.442;7.016;2023-07-31T03:21:38;18.10;99.90
1429;DHT22;708;51.442;7.016;2023-07-31T03:24:06;18.10;99.90
1429;DHT22;708;51.442;7.016;2023-07-31T03:26:33;18.10;99.90
1429;DHT22;708;51.442;7.016;2023-07-31T03:29:01;18.10;99.90
1429;DHT22;708;51.442;7.016;2023-07-31T03:31:28;18.10;99.90
1429;DHT22;708;51.442;7.016;2023-07-31T03:33:55;18.10;99.90
1429;DHT22;708;51.442;7.016;2023-07-31T03:36:22;18.10;99.90
1429;DHT22;708;51.442;7.016;2023-07-31T03:38:48;18.20;99.90
1429;DHT22;708;51.442;7.016;2023-07-31T03:41:16;18.30;99.90
1429;DHT22;708;51.442;7.016;2023-07-31T03:43:43;18.30;99.90
1429;DHT22;708;51.442;7.016;2023-07-31T03:46:10;18.30;99.90
1429;DHT22;708;51.442;7.016;2023-07-31T03:48:37;18.30;99.90
1429;DHT22;708;51.442;7.016;2023-07-31T03:51:03;18.20;99.90
1429;DHT22;708;51.442;7.016;2023-07-31T03:53:30;18.20;99.90
1429;DHT22;708;51.442;7.016;2023-07-31T03:55:57;18.20;99.90
1429;DHT22;708;51.442;7.016;2023-07-31T03:58:25;18.20;99.90
1429;DHT22;708;51.442;7.016;2023-07-31T04:00:52;18.20;99.90
1429;DHT22;708;51.442;7.016;2023-07-31T04:03:18;18.30;99.90
1429;DHT22;708;51.442;7.016;2023-07-31T04:05:45;18.30;99.90
1429;DHT22;708;51.442;7.016;2023-07-31T04:08:12;18.30;99.90
1429;DHT22;708;51.442;7.016;2023-07-31T04:10:38;18.40;99.90
1429;DHT22;708;51.442;7.016;2023-07-31T04:13:05;18.30;99.70
1429;DHT22;708;51.442;7.016;2023-07-31T04:15:33;18.40;99.90
1429;DHT22;708;51.442;7.016;2023-07-31T04:18:00;18.40;98.60
1429;DHT22;708;51.442;7.016;2023-07-31T04:20:27;18.50;98.00
1429;DHT22;708;51.442;7.016;2023-07-31T04:22:54;18.50;99.40
1429;DHT22;708;51.442;7.016;2023-07-31T04:25:20;18.50;97.40
1429;DHT22;708;51.442;7.016;2023-07-31T04:27:47;18.50;96.40
1429;DHT22;708;51.442;7.016;2023-07-31T04:30:14;18.50;93.60
1429;DHT22;708;51.442;7.016;2023-07-31T04:32:42;18.60;92.90
1429;DHT22;708;51.442;7.016;2023-07-31T04:35:10;18.60;90.00
1429;DHT22;708;51.442;7.016;2023-07-31T04:37:36;18.60;95.20
1429;DHT22;708;51.442;7.016;2023-07-31T04:40:05;18.60;95.90
1429;DHT22;708;51.442;7.016;2023-07-31T04:42:32;18.60;96.90
1429;DHT22;708;51.442;7.016;2023-07-31T04:45:00;18.60;98.10
1429;DHT22;708;51.442;7.016;2023-07-31T04:47:27;18.60;95.70
1429;DHT22;708;51.442;7.016;2023-07-31T04:49:55;18.60;98.70
1429;DHT22;708;51.442;7.016;2023-07-31T04:52:22;18.60;96.90
1429;DHT22;708;51.442;7.016;2023-07-31T04:54:49;18.70;98.10
1429;DHT22;708;51.442;7.016;2023-07-31T04:57:16;18.70;95.80
1429;DHT22;708;51.442;7.016;2023-07-31T04:59:43;18.70;94.30
1429;DHT22;708;51.442;7.016;2023-07-31T05:02:12;18.70;97.00
1429;DHT22;708;51.442;7.016;2023-07-31T05:04:39;18.80;92.50
1429;DHT22;708;51.442;7.016;2023-07-31T05:07:07;18.90;83.70
1429;DHT22;708;51.442;7.016;2023-07-31T05:09:34;19.00;84.80
1429;DHT22;708;51.442;7.016;2023-07-31T05:12:01;18.90;82.90
1429;DHT22;708;51.442;7.016;2023-07-31T05:14:27;19.10;74.40
1429;DHT22;708;51.442;7.016;2023-07-31T05:16:54;19.10;70.00
1429;DHT22;708;51.442;7.016;2023-07-31T05:19:21;19.10;62.50
1429;DHT22;708;51.442;7.016;2023-07-31T05:21:48;19.10;61.50
1429;DHT22;708;51.442;7.016;2023-07-31T05:24:16;19.10;68.00
1429;DHT22;708;51.442;7.016;2023-07-31T05:26:43;19.10;70.50
1429;DHT22;708;51.442;7.016;2023-07-31T05:29:10;19.10;69.20
1429;DHT22;708;51.442;7.016;2023-07-31T05:31:36;19.10;71.10
1429;DHT22;708;51.442;7.016;2023-07-31T05:34:06;19.10;69.60
1429;DHT22;708;51.442;7.016;2023-07-31T05:36:33;19.10;74.10
1429;DHT22;708;51.442;7.016;2023-07-31T05:38:59;19.20;74.10
1429;DHT22;708;51.442;7.016;2023-07-31T05:41:33;19.20;65.10
1429;DHT22;708;51.442;7.016;2023-07-31T05:44:00;19.30;57.30
1429;DHT22;708;51.442;7.016;2023-07-31T05:46:26;19.20;64.90
1429;DHT22;708;51.442;7.016;2023-07-31T05:48:53;19.10;76.20
1429;DHT22;708;51.442;7.016;2023-07-31T05:51:20;19.00;89.90
1429;DHT22;708;51.442;7.016;2023-07-31T05:53:47;19.10;94.80
1429;DHT22;708;51.442;7.016;2023-07-31T05:56:13;19.00;93.20
1429;DHT22;708;51.442;7.016;2023-07-31T05:58:41;19.00;92.80
1429;DHT22;708;51.442;7.016;2023-07-31T06:01:08;19.00;96.50
1429;DHT22;708;51.442;7.016;2023-07-31T06:03:35;19.00;96.10
1429;DHT22;708;51.442;7.016;2023-07-31T06:06:02;19.10;94.80
1429;DHT22;708;51.442;7.016;2023-07-31T06:08:29;19.10;92.70
1429;DHT22;708;51.442;7.016;2023-07-31T06:10:56;19.20;90.90
1429;DHT22;708;51.442;7.016;2023-07-31T06:13:23;19.20;88.10
1429;DHT22;708;51.442;7.016;2023-07-31T06:15:51;19.30;73.00
1429;DHT22;708;51.442;7.016;2023-07-31T06:18:18;19.20;61.40
1429;DHT22;708;51.442;7.016;2023-07-31T06:20:45;19.30;64.50
1429;DHT22;708;51.442;7.016;2023-07-31T06:23:13;19.30;62.90
1429;DHT22;708;51.442;7.016;2023-07-31T06:25:40;19.30;59.90
1429;DHT22;708;51.442;7.016;2023-07-31T06:28:07;19.30;62.80
1429;DHT22;708;51.442;7.016;2023-07-31T06:30:34;19.40;70.80
1429;DHT22;708;51.442;7.016;2023-07-31T06:33:02;19.30;76.50
1429;DHT22;708;51.442;7.016;2023-07-31T06:35:29;19.20;99.40
1429;DHT22;708;51.442;7.016;2023-07-31T06:37:56;19.20;99.90
1429;DHT22;708;51.442;7.016;2023-07-31T06:40:23;19.20;99.90
1429;DHT22;708;51.442;7.016;2023-07-31T06:42:50;19.20;99.90
1429;DHT22;708;51.442;7.016;2023-07-31T06:45:18;19.10;99.90
1429;DHT22;708;51.442;7.016;2023-07-31T06:47:45;19.10;99.90
1429;DHT22;708;51.442;7.016;2023-07-31T06:50:13;19.10;99.90
1429;DHT22;708;51.442;7.016;2023-07-31T06:52:40;19.00;99.90
1429;DHT22;708;51.442;7.016;2023-07-31T06:55:17;19.10;99.90
1429;DHT22;708;51.442;7.016;2023-07-31T06:57:44;19.00;99.90
1429;DHT22;708;51.442;7.016;2023-07-31T07:00:12;19.10;99.90
1429;DHT22;708;51.442;7.016;2023-07-31T07:02:39;19.10;99.90
1429;DHT22;708;51.442;7.016;2023-07-31T07:05:06;19.10;99.90
1429;DHT22;708;51.442;7.016;2023-07-31T07:07:35;19.20;99.90
1429;DHT22;708;51.442;7.016;2023-07-31T07:10:03;19.20;99.90
1429;DHT22;708;51.442;7.016;2023-07-31T07:12:31;19.20;99.90
1429;DHT22;708;51.442;7.016;2023-07-31T07:14:58;19.10;99.90
1429;DHT22;708;51.442;7.016;2023-07-31T07:17:26;19.10;99.90
1429;DHT22;708;51.442;7.016;2023-07-31T07:19:53;19.00;99.90
1429;DHT22;708;51.442;7.016;2023-07-31T07:22:20;19.00;99.90
1429;DHT22;708;51.442;7.016;2023-07-31T07:24:48;19.00;99.90
1429;DHT22;708;51.442;7.016;2023-07-31T07:27:15;18.90;99.90
1429;DHT22;708;51.442;7.016;2023-07-31T07:29:42;19.00;99.90
1429;DHT22;708;51.442;7.016;2023-07-31T07:32:14;19.00;99.90
1429;DHT22;708;51.442;7.016;2023-07-31T07:34:43;19.10;99.90
1429;DHT22;708;51.442;7.016;2023-07-31T07:37:10;19.00;99.90
1429;DHT22;708;51.442;7.016;2023-07-31T07:39:37;19.00;99.90
1429;DHT22;708;51.442;7.016;2023-07-31T07:42:05;19.00;99.90
1429;DHT22;708;51.442;7.016;2023-07-31T07:44:32;19.00;99.90
1429;DHT22;708;51.442;7.016;2023-07-31T07:46:59;19.10;99.90
1429;DHT22;708;51.442;7.016;2023-07-31T07:49:25;19.10;99.90
1429;DHT22;708;51.442;7.016;2023-07-31T07:51:52;19.10;99.90
1429;DHT22;708;51.442;7.016;2023-07-31T07:54:19;19.10;99.90
1429;DHT22;708;51.442;7.016;2023-07-31T07:56:46;19.10;99.90
1429;DHT22;708;51.442;7.016;2023-07-31T07:59:14;19.20;99.90
1429;DHT22;708;51.442;7.016;2023-07-31T08:01:41;19.20;99.90
1429;DHT22;708;51.442;7.016;2023-07-31T08:04:08;19.10;99.90
1429;DHT22;708;51.442;7.016;2023-07-31T08:06:35;19.00;99.90
1429;DHT22;708;51.442;7.016;2023-07-31T08:09:02;18.90;99.90
1429;DHT22;708;51.442;7.016;2023-07-31T08:11:31;18.80;99.90
1429;DHT22;708;51.442;7.016;2023-07-31T08:13:58;18.80;99.90
1429;DHT22;708;51.442;7.016;2023-07-31T08:16:27;18.80;99.90
1429;DHT22;708;51.442;7.016;2023-07-31T08:18:53;18.80;99.90
1429;DHT22;708;51.442;7.016;2023-07-31T08:21:21;18.80;99.90
1429;DHT22;708;51.442;7.016;2023-07-31T08:23:48;19.00;99.90
1429;DHT22;708;51.442;7.016;2023-07-31T08:26:15;19.10;99.90
1429;DHT22;708;51.442;7.016;2023-07-31T08:28:42;19.20;99.90
1429;DHT22;708;51.442;7.016;2023-07-31T08:31:09;19.20;99.90
1429;DHT22;708;51.442;7.016;2023-07-31T08:33:37;19.10;99.90
1429;DHT22;708;51.442;7.016;2023-07-31T08:36:04;19.10;99.90
1429;DHT22;708;51.442;7.016;2023-07-31T08:38:31;19.20;99.90
1429;DHT22;708;51.442;7.016;2023-07-31T08:40:58;19.20;99.90
1429;DHT22;708;51.442;7.016;2023-07-31T08:43:26;19.20;99.90
1429;DHT22;708;51.442;7.016;2023-07-31T08:45:53;19.20;99.90
1429;DHT22;708;51.442;7.016;2023-07-31T08:48:25;19.10;99.90
1429;DHT22;708;51.442;7.016;2023-07-31T08:51:03;19.10;99.90
1429;DHT22;708;51.442;7.016;2023-07-31T08:53:35;19.00;99.90
1429;DHT22;708;51.442;7.016;2023-07-31T08:56:02;19.10;99.90
1429;DHT22;708;51.442;7.016;2023-07-31T08:58:31;19.00;99.90
1429;DHT22;708;51.442;7.016;2023-07-31T09:01:03;19.00;99.90
1429;DHT22;708;51.442;7.016;2023-07-31T09:03:39;19.00;99.90
1429;DHT22;708;51.442;7.016;2023-07-31T09:06:09;19.10;99.90
1429;DHT22;708;51.442;7.016;2023-07-31T09:08:38;19.10;99.90
1429;DHT22;708;51.442;7.016;2023-07-31T09:11:07;19.10;99.90
1429;DHT22;708;51.442;7.016;2023-07-31T09:13:34;19.10;99.90
1429;DHT22;708;51.442;7.016;2023-07-31T09:16:02;19.00;99.90
1429;DHT22;708;51.442;7.016;2023-07-31T09:18:29;18.90;99.90
1429;DHT22;708;51.442;7.016;2023-07-31T09:21:03;18.80;99.90
1429;DHT22;708;51.442;7.016;2023-07-31T09:23:45;18.80;99.90
1429;DHT22;708;51.442;7.016;2023-07-31T09:26:29;18.90;99.90
1429;DHT22;708;51.442;7.016;2023-07-31T09:28:56;18.90;99.90
1429;DHT22;708;51.442;7.016;2023-07-31T09:31:32;19.00;99.90
1429;DHT22;708;51.442;7.016;2023-07-31T09:33:59;19.10;99.90
1429;DHT22;708;51.442;7.016;2023-07-31T09:36:29;19.10;99.90
1429;DHT22;708;51.442;7.016;2023-07-31T09:39:01;19.10;99.90
1429;DHT22;708;51.442;7.016;2023-07-31T09:41:29;19.00;99.90
1429;DHT22;708;51.442;7.016;2023-07-31T09:43:56;19.10;99.90
1429;DHT22;708;51.442;7.016;2023-07-31T09:46:28;19.10;99.90
1429;DHT22;708;51.442;7.016;2023-07-31T09:49:04;19.30;99.90
1429;DHT22;708;51.442;7.016;2023-07-31T09:51:32;19.30;99.90
1429;DHT22;708;51.442;7.016;2023-07-31T09:54:09;19.30;99.90
1429;DHT22;708;51.442;7.016;2023-07-31T09:56:43;19.30;99.90
1429;DHT22;708;51.442;7.016;2023-07-31T09:59:15;19.30;99.90
1429;DHT22;708;51.442;7.016;2023-07-31T10:01:44;19.30;99.90
1429;DHT22;708;51.442;7.016;2023-07-31T10:04:13;19.30;99.90
1429;DHT22;708;51.442;7.016;2023-07-31T10:06:42;19.40;99.90
1429;DHT22;708;51.442;7.016;2023-07-31T10:09:13;19.40;99.90
1429;DHT22;708;51.442;7.016;2023-07-31T10:11:46;19.40;99.90
1429;DHT22;708;51.442;7.016;2023-07-31T10:14:19;19.40;99.90
1429;DHT22;708;51.442;7.016;2023-07-31T10:16:47;19.40;99.90
1429;DHT22;708;51.442;7.016;2023-07-31T10:19:15;19.20;99.90
1429;DHT22;708;51.442;7.016;2023-07-31T10:21:42;19.20;99.90
1429;DHT22;708;51.442;7.016;2023-07-31T10:24:11;19.10;99.90
1429;DHT22;708;51.442;7.016;2023-07-31T10:26:40;19.10;99.90
1429;DHT22;708;51.442;7.016;2023-07-31T10:29:08;19.00;99.90
1429;DHT22;708;51.442;7.016;2023-07-31T10:31:35;19.00;99.90
1429;DHT22;708;51.442;7.016;2023-07-31T10:34:03;18.90;99.90
1429;DHT22;708;51.442;7.016;2023-07-31T10:36:30;18.90;99.90
1429;DHT22;708;51.442;7.016;2023-07-31T10:38:57;18.90;99.90
1429;DHT22;708;51.442;7.016;2023-07-31T10:41:32;18.80;99.90
1429;DHT22;708;51.442;7.016;2023-07-31T10:44:01;18.90;99.90
1429;DHT22;708;51.442;7.016;2023-07-31T10:46:28;18.90;99.90
1429;DHT22;708;51.442;7.016;2023-07-31T10:49:01;18.90;99.90
1429;DHT22;708;51.442;7.016;2023-07-31T10:51:35;18.90;99.90
1429;DHT22;708;51.442;7.016;2023-07-31T10:54:13;19.00;99.90
1429;DHT22;708;51.442;7.016;2023-07-31T10:56:49;19.10;99.90
1429;DHT22;708;51.442;7.016;2023-07-31T10:59:18;19.20;99.90
1429;DHT22;708;51.442;7.016;2023-07-31T11:01:56;19.40;99.90
1429;DHT22;708;51.442;7.016;2023-07-31T11:04:24;19.60;99.90
1429;DHT22;708;51.442;7.016;2023-07-31T11:06:58;19.70;99.90
1429;DHT22;708;51.442;7.016;2023-07-31T11:09:28;19.90;99.90
1429;DHT22;708;51.442;7.016;2023-07-31T11:11:59;20.00;99.90
1429;DHT22;708;51.442;7.016;2023-07-31T11:14:26;20.30;99.90
1429;DHT22;708;51.442;7.016;2023-07-31T11:16:53;20.40;92.60
1429;DHT22;708;51.442;7.016;2023-07-31T11:19:24;20.60;65.30
1429;DHT22;708;51.442;7.016;2023-07-31T11:21:51;20.60;44.60
1429;DHT22;708;51.442;7.016;2023-07-31T11:24:18;20.80;49.60
1429;DHT22;708;51.442;7.016;2023-07-31T11:26:50;21.10;36.70
1429;DHT22;708;51.442;7.016;2023-07-31T11:29:18;21.20;17.30
1429;DHT22;708;51.442;7.016;2023-07-31T11:31:47;21.40;14.40
1429;DHT22;708;51.442;7.016;2023-07-31T11:34:14;21.30;5.60
1429;DHT22;708;51.442;7.016;2023-07-31T11:36:53;21.40;10.50
1429;DHT22;708;51.442;7.016;2023-07-31T11:39:20;21.60;1.40
1429;DHT22;708;51.442;7.016;2023-07-31T11:41:47;21.80;1.00
1429;DHT22;708;51.442;7.016;2023-07-31T11:44:14;21.90;1.00
1429;DHT22;708;51.442;7.016;2023-07-31T11:46:43;22.10;1.00
1429;DHT22;708;51.442;7.016;2023-07-31T11:49:10;22.30;1.00
1429;DHT22;708;51.442;7.016;2023-07-31T11:51:42;22.50;1.00
1429;DHT22;708;51.442;7.016;2023-07-31T11:54:09;22.60;1.00
1429;DHT22;708;51.442;7.016;2023-07-31T11:56:38;22.70;1.00
1429;DHT22;708;51.442;7.016;2023-07-31T11:59:05;22.80;1.00
1429;DHT22;708;51.442;7.016;2023-07-31T12:01:34;22.90;1.00
1429;DHT22;708;51.442;7.016;2023-07-31T12:04:02;23.00;1.00
1429;DHT22;708;51.442;7.016;2023-07-31T12:06:33;23.20;1.00
1429;DHT22;708;51.442;7.016;2023-07-31T12:09:02;23.10;1.00
1429;DHT22;708;51.442;7.016;2023-07-31T12:11:31;22.90;1.00
1429;DHT22;708;51.442;7.016;2023-07-31T12:13:58;22.80;1.00
1429;DHT22;708;51.442;7.016;2023-07-31T12:16:26;22.50;1.00
1429;DHT22;708;51.442;7.016;2023-07-31T12:18:54;22.20;1.00
1429;DHT22;708;51.442;7.016;2023-07-31T12:21:23;22.10;1.00
1429;DHT22;708;51.442;7.016;2023-07-31T12:23:51;22.00;1.00
1429;DHT22;708;51.442;7.016;2023-07-31T12:26:19;21.90;1.00
1429;DHT22;708;51.442;7.016;2023-07-31T12:28:50;21.70;1.00
1429;DHT22;708;51.442;7.016;2023-07-31T12:31:18;21.60;1.00
1429;DHT22;708;51.442;7.016;2023-07-31T12:33:47;21.50;8.00
1429;DHT22;708;51.442;7.016;2023-07-31T12:36:17;21.40;6.80
1429;DHT22;708;51.442;7.016;2023-07-31T12:38:46;21.30;12.80
1429;DHT22;708;51.442;7.016;2023-07-31T12:41:13;21.20;13.70
1429;DHT22;708;51.442;7.016;2023-07-31T12:43:42;21.20;19.20
1429;DHT22;708;51.442;7.016;2023-07-31T12:46:09;21.30;22.00
1429;DHT22;708;51.442;7.016;2023-07-31T12:48:37;21.50;8.20
1429;DHT22;708;51.442;7.016;2023-07-31T12:51:05;21.60;1.00
1429;DHT22;708;51.442;7.016;2023-07-31T12:53:33;21.60;1.00
1429;DHT22;708;51.442;7.016;2023-07-31T12:56:02;21.60;1.00
1429;DHT22;708;51.442;7.016;2023-07-31T12:58:29;21.60;1.00
1429;DHT22;708;51.442;7.016;2023-07-31T13:00:56;21.60;1.00
1429;DHT22;708;51.442;7.016;2023-07-31T13:03:23;21.50;1.00
1429;DHT22;708;51.442;7.016;2023-07-31T13:05:50;21.40;6.50
1429;DHT22;708;51.442;7.016;2023-07-31T13:08:18;21.30;21.50
1429;DHT22;708;51.442;7.016;2023-07-31T13:10:45;21.20;35.70
1429;DHT22;708;51.442;7.016;2023-07-31T13:13:13;21.10;41.60
1429;DHT22;708;51.442;7.016;2023-07-31T13:15:40;21.10;44.30
1429;DHT22;708;51.442;7.016;2023-07-31T13:18:07;20.90;43.00
1429;DHT22;708;51.442;7.016;2023-07-31T13:20:34;20.90;52.70
1429;DHT22;708;51.442;7.016;2023-07-31T13:23:01;21.00;52.80
1429;DHT22;708;51.442;7.016;2023-07-31T13:25:28;21.10;45.30
1429;DHT22;708;51.442;7.016;2023-07-31T13:27:55;21.20;40.00
1429;DHT22;708;51.442;7.016;2023-07-31T13:30:23;21.40;28.40
1429;DHT22;708;51.442;7.016;2023-07-31T13:32:52;21.60;17.70
1429;DHT22;708;51.442;7.016;2023-07-31T13:35:19;21.70;6.80
1429;DHT22;708;51.442;7.016;2023-07-31T13:37:46;21.70;4.20
1429;DHT22;708;51.442;7.016;2023-07-31T13:40:12;21.70;1.00
1429;DHT22;708;51.442;7.016;2023-07-31T13:42:39;21.80;1.00
1429;DHT22;708;51.442;7.016;2023-07-31T13:45:06;22.00;1.00
1429;DHT22;708;51.442;7.016;2023-07-31T13:47:35;22.10;1.00
1429;DHT22;708;51.442;7.016;2023-07-31T13:50:03;22.30;1.00
1429;DHT22;708;51.442;7.016;2023-07-31T13:52:29;22.30;1.00
1429;DHT22;708;51.442;7.016;2023-07-31T13:54:56;22.30;1.00
1429;DHT22;708;51.442;7.016;2023-07-31T13:57:23;22.40;1.00
1429;DHT22;708;51.442;7.016;2023-07-31T13:59:50;22.30;1.00
1429;DHT22;708;51.442;7.016;2023-07-31T14:02:16;22.40;1.00
1429;DHT22;708;51.442;7.016;2023-07-31T14:04:44;22.40;1.00
1429;DHT22;708;51.442;7.016;2023-07-31T14:07:11;22.40;1.00
1429;DHT22;708;51.442;7.016;2023-07-31T14:09:38;22.50;1.00
1429;DHT22;708;51.442;7.016;2023-07-31T14:12:05;22.80;1.00
1429;DHT22;708;51.442;7.016;2023-07-31T14:14:32;23.10;1.00
1429;DHT22;708;51.442;7.016;2023-07-31T14:16:59;23.40;1.00
1429;DHT22;708;51.442;7.016;2023-07-31T14:19:26;23.50;1.00
1429;DHT22;708;51.442;7.016;2023-07-31T14:21:54;23.80;1.00
1429;DHT22;708;51.442;7.016;2023-07-31T14:24:21;23.90;1.00
1429;DHT22;708;51.442;7.016;2023-07-31T14:26:48;24.00;1.00
1429;DHT22;708;51.442;7.016;2023-07-31T14:29:14;23.90;1.00
1429;DHT22;708;51.442;7.016;2023-07-31T14:31:41;23.90;1.00
1429;DHT22;708;51.442;7.016;2023-07-31T14:34:08;23.80;1.00
1429;DHT22;708;51.442;7.016;2023-07-31T14:36:35;23.60;1.00
1429;DHT22;708;51.442;7.016;2023-07-31T14:39:03;23.30;1.00
1429;DHT22;708;51.442;7.016;2023-07-31T14:41:30;23.00;1.00
1429;DHT22;708;51.442;7.016;2023-07-31T14:43:56;22.70;1.00
1429;DHT22;708;51.442;7.016;2023-07-31T14:46:23;22.40;1.00
1429;DHT22;708;51.442;7.016;2023-07-31T14:48:50;22.30;1.00
1429;DHT22;708;51.442;7.016;2023-07-31T14:51:17;22.10;1.00
1429;DHT22;708;51.442;7.016;2023-07-31T14:53:44;21.80;1.00
1429;DHT22;708;51.442;7.016;2023-07-31T14:56:13;21.70;1.00
1429;DHT22;708;51.442;7.016;2023-07-31T14:58:40;21.50;1.00
1429;DHT22;708;51.442;7.016;2023-07-31T15:01:07;21.30;8.90
1429;DHT22;708;51.442;7.016;2023-07-31T15:03:34;21.30;22.50
1429;DHT22;708;51.442;7.016;2023-07-31T15:06:01;21.20;30.60
1429;DHT22;708;51.442;7.016;2023-07-31T15:08:27;21.10;36.50
1429;DHT22;708;51.442;7.016;2023-07-31T15:10:55;21.00;43.00
1429;DHT22;708;51.442;7.016;2023-07-31T15:13:24;20.90;56.50
1429;DHT22;708;51.442;7.016;2023-07-31T15:15:51;20.80;75.30
1429;DHT22;708;51.442;7.016;2023-07-31T15:18:18;20.70;59.10
1429;DHT22;708;51.442;7.016;2023-07-31T15:20:45;20.80;58.40
1429;DHT22;708;51.442;7.016;2023-07-31T15:23:12;20.80;45.30
1429;DHT22;708;51.442;7.016;2023-07-31T15:25:39;20.90;32.50
1429;DHT22;708;51.442;7.016;2023-07-31T15:28:06;20.90;29.90
1429;DHT22;708;51.442;7.016;2023-07-31T15:30:36;20.90;18.90
1429;DHT22;708;51.442;7.016;2023-07-31T15:33:03;21.00;20.80
1429;DHT22;708;51.442;7.016;2023-07-31T15:35:30;21.10;3.90
1429;DHT22;708;51.442;7.016;2023-07-31T15:37:57;21.10;1.00
1429;DHT22;708;51.442;7.016;2023-07-31T15:40:32;21.20;1.00
1429;DHT22;708;51.442;7.016;2023-07-31T15:43:05;21.20;1.00
1429;DHT22;708;51.442;7.016;2023-07-31T15:45:32;21.20;1.00
1429;DHT22;708;51.442;7.016;2023-07-31T15:48:00;21.30;1.00
1429;DHT22;708;51.442;7.016;2023-07-31T15:50:27;21.30;1.00
1429;DHT22;708;51.442;7.016;2023-07-31T15:52:58;21.30;1.00
1429;DHT22;708;51.442;7.016;2023-07-31T15:55:27;21.30;1.00
1429;DHT22;708;51.442;7.016;2023-07-31T15:57:54;21.40;1.00
1429;DHT22;708;51.442;7.016;2023-07-31T16:00:21;21.30;1.00
1429;DHT22;708;51.442;7.016;2023-07-31T16:02:48;21.30;1.00
1429;DHT22;708;51.442;7.016;2023-07-31T16:05:17;21.40;1.00
1429;DHT22;708;51.442;7.016;2023-07-31T16:07:44;21.40;1.00
1429;DHT22;708;51.442;7.016;2023-07-31T16:10:10;21.20;1.00
1429;DHT22;708;51.442;7.016;2023-07-31T16:12:38;21.00;1.00
1429;DHT22;708;51.442;7.016;2023-07-31T16:15:06;20.80;2.60
1429;DHT22;708;51.442;7.016;2023-07-31T16:17:33;20.60;19.70
1429;DHT22;708;51.442;7.016;2023-07-31T16:20:00;20.30;55.10
1429;DHT22;708;51.442;7.016;2023-07-31T16:22:28;20.20;84.60
1429;DHT22;708;51.442;7.016;2023-07-31T16:24:55;20.10;92.80
1429;DHT22;708;51.442;7.016;2023-07-31T16:27:21;19.90;99.90